Time;durP1;ratioP1;P1;durP2;ratioP2;P2;SDS_P1;SDS_P2;PMS_P1;PMS_P2;Temp;Humidity;BMP_temperature;BMP_pressure;BME280_temperature;BME280_humidity;BME280_pressure;Samples;Min_cycle;Max_cycle;Signal;HPM_P1;HPM_P2
2023/06/07 00:01:12;;;;;;;10.73;3.53;;;;;;;;;;5011109;28;20072;-56
2023/06/07 00:03:41;;;;;;;6.97;3.60;;;;;;;;;;5012456;28;20026;-54
2023/06/07 00:06:13;;;;;;;4.00;3.25;;;;;;;;;;5012548;28;20638;-52
2023/06/07 00:08:43;;;;;;;4.50;2.88;;;;;;;;;;5012649;28;20030;-58
2023/06/07 00:11:10;;;;;;;5.28;3.30;;;;;;;;;;5011744;28;20489;-55
2023/06/07 00:13:36;;;;;;;4.75;3.60;;;;;;;;;;5012232;28;20049;-51
2023/06/07 00:16:02;;;;;;;4.72;3.33;;;;;;;;;;5012416;28;20105;-56
2023/06/07 00:18:28;;;;;;;5.50;3.53;;;18.10;99.90;;;;;;5012382;28;20108;-55
2023/06/07 00:20:54;;;;;;;4.03;3.20;;;;;;;;;;5012039;28;20546;-52
2023/06/07 00:23:20;;;;;;;5.97;3.20;;;;;;;;;;5012116;28;20064;-55
2023/06/07 00:25:46;;;;;;;5.45;3.28;;;;;;;;;;5012261;28;20029;-54
2023/06/07 00:28:13;;;;;;;3.70;3.03;;;;;;;;;;5012481;28;20117;-54
2023/06/07 00:30:39;;;;;;;3.22;2.92;;;;;;;;;;5010529;28;20109;-51
2023/06/07 00:33:05;;;;;;;5.90;3.00;;;18.10;99.90;;;;;;5012110;28;20485;-55
2023/06/07 00:35:31;;;;;;;4.57;3.60;;;;;;;;;;5010787;28;20042;-53
2023/06/07 00:37:57;;;;;;;4.72;3.50;;;;;;;;;;5012073;28;20065;-56
2023/06/07 00:40:38;;;;;;;6.72;3.63;;;;;;;;;;5011944;28;20088;-54
2023/06/07 00:43:05;;;;;;;6.68;3.53;;;;;;;;;;5011813;28;20569;-54
2023/06/07 00:45:31;;;;;;;5.82;4.05;;;;;;;;;;5011979;28;20030;-53
2023/06/07 00:47:57;;;;;;;11.00;4.15;;;;;;;;;;5010766;28;20812;-50
2023/06/07 00:50:24;;;;;;;7.97;3.28;;;;;;;;;;5011878;28;20547;-52
2023/06/07 00:52:51;;;;;;;5.47;3.33;;;;;;;;;;5011588;28;20034;-55
2023/06/07 00:55:18;;;;;;;5.43;3.53;;;;;;;;;;5011544;28;20117;-56
2023/06/07 00:57:45;;;;;;;7.00;3.03;;;;;;;;;;5011776;28;20117;-55
2023/06/07 01:00:13;;;;;;;5.75;3.60;;;;;;;;;;5011875;28;20033;-54
2023/06/07 01:02:40;;;;;;;4.57;2.92;;;;;;;;;;5011446;28;20022;-55
2023/06/07 01:05:07;;;;;;;8.48;2.65;;;;;;;;;;5010606;28;20469;-54
2023/06/07 01:07:34;;;;;;;3.40;3.03;;;;;;;;;;5011596;28;20557;-56
2023/06/07 01:10:01;;;;;;;6.13;3.17;;;;;;;;;;5011912;28;20062;-57
2023/06/07 01:12:29;;;;;;;6.68;3.15;;;;;;;;;;5011450;28;20225;-55
2023/06/07 01:14:57;;;;;;;8.82;4.03;;;;;;;;;;5011447;28;20490;-55
2023/06/07 01:17:24;;;;;;;4.95;3.05;;;;;;;;;;5011796;28;20033;-53
2023/06/07 01:19:55;;;;;;;6.75;3.60;;;;;;;;;;5011630;28;20026;-56
2023/06/07 01:22:27;;;;;;;3.90;2.97;;;;;;;;;;5011893;28;20049;-54
2023/06/07 01:24:55;;;;;;;4.65;3.30;;;;;;;;;;5015401;28;20030;-54
2023/06/07 01:27:27;;;;;;;4.05;3.53;;;;;;;;;;5015693;28;20095;-53
2023/06/07 01:29:55;;;;;;;6.03;3.10;;;;;;;;;;5014289;28;20030;-56
2023/06/07 01:32:24;;;;;;;5.03;3.60;;;;;;;;;;5015051;28;20033;-57
2023/06/07 01:34:54;;;;;;;7.45;2.90;;;;;;;;;;5015176;28;20026;-57
2023/06/07 01:37:23;;;;;;;6.63;2.92;;;;;;;;;;5014139;28;20033;-54
2023/06/07 01:39:52;;;;;;;4.03;3.40;;;;;;;;;;5015301;28;20022;-55
2023/06/07 01:42:19;;;;;;;4.53;3.15;;;;;;;;;;5014958;28;20553;-56
2023/06/07 01:44:49;;;;;;;5.15;3.88;;;;;;;;;;5014833;28;20101;-54
2023/06/07 01:47:19;;;;;;;4.25;3.45;;;;;;;;;;5015167;28;20022;-56
2023/06/07 01:49:48;;;;;;;6.15;3.70;;;;;;;;;;5015252;28;20054;-54
2023/06/07 01:52:17;;;;;;;5.47;3.25;;;;;;;;;;5013462;28;20124;-53
2023/06/07 01:54:44;;;;;;;4.50;3.17;;;;;;;;;;5014842;28;20058;-53
2023/06/07 01:57:32;;;;;;;5.68;2.90;;;;;;;;;;5015004;28;20030;-55
2023/06/07 02:00:21;;;;;;;6.65;3.20;;;;;;;;;;5014814;28;20116;-54
2023/06/07 02:02:58;;;;;;;8.68;3.85;;;;;;;;;;5014570;28;20065;-55
2023/06/07 02:05:37;;;;;;;5.20;3.67;;;;;;;;;;5014856;28;20057;-54
2023/06/07 02:08:14;;;;;;;6.38;3.40;;;;;;;;;;5014843;28;20426;-55
2023/06/07 02:10:44;;;;;;;3.78;3.30;;;;;;;;;;5014392;28;20445;-55
2023/06/07 02:13:14;;;;;;;6.90;2.72;;;;;;;;;;5013141;28;20053;-56
2023/06/07 02:15:43;;;;;;;5.40;3.58;;;;;;;;;;5014623;28;20033;-51
2023/06/07 02:18:12;;;;;;;4.35;3.28;;;;;;;;;;5013174;28;20116;-53
2023/06/07 02:20:39;;;;;;;5.15;3.10;;;;;;;;;;5014270;28;20371;-52
2023/06/07 02:23:06;;;;;;;7.63;3.30;;;;;;;;;;5014267;28;20029;-52
2023/06/07 02:25:34;;;;;;;5.70;3.58;;;;;;;;;;5014488;28;20413;-51
2023/06/07 02:28:02;;;;;;;6.82;3.00;;;;;;;;;;5013234;28;20084;-52
2023/06/07 02:30:29;;;;;;;6.47;3.28;;;;;;;;;;5014442;28;20048;-50
2023/06/07 02:32:56;;;;;;;8.13;3.90;;;;;;;;;;5013498;28;20121;-53
2023/06/07 02:35:23;;;;;;;4.78;4.00;;;;;;;;;;5014147;28;20036;-55
2023/06/07 02:37:50;;;;;;;4.70;3.58;;;;;;;;;;5014318;28;20030;-55
2023/06/07 02:40:17;;;;;;;10.80;3.92;;;;;;;;;;5012974;28;20026;-51
2023/06/07 02:42:45;;;;;;;3.95;3.20;;;;;;;;;;5013881;28;20057;-56
2023/06/07 02:45:13;;;;;;;6.45;3.28;;;;;;;;;;5012808;28;20037;-52
2023/06/07 02:47:40;;;;;;;6.50;3.90;;;;;;;;;;5014454;28;20030;-52
2023/06/07 02:50:07;;;;;;;8.02;3.42;;;;;;;;;;5014708;28;20057;-53
2023/06/07 02:52:36;;;;;;;6.13;4.28;;;;;;;;;;5014092;28;20069;-53
2023/06/07 02:55:03;;;;;;;3.65;3.20;;;;;;;;;;5013803;28;20057;-56
2023/06/07 02:57:30;;;;;;;6.70;3.28;;;;;;;;;;5013843;28;20116;-52
2023/06/07 02:59:58;;;;;;;4.20;3.80;;;;;;;;;;5013765;28;20047;-52
2023/06/07 03:02:25;;;;;;;6.82;3.13;;;;;;;;;;5013422;28;20096;-52
2023/06/07 03:05:00;;;;;;;7.20;3.78;;;;;;;;;;5013532;28;20026;-54
2023/06/07 03:07:28;;;;;;;6.97;3.53;;;;;;;;;;5013715;28;20056;-51
2023/06/07 03:09:57;;;;;;;5.93;3.70;;;;;;;;;;5012467;28;20029;-55
2023/06/07 03:12:26;;;;;;;10.10;4.00;;;;;;;;;;5013180;28;20112;-51
2023/06/07 03:14:55;;;;;;;6.10;3.67;;;;;;;;;;5013247;28;20040;-55
2023/06/07 03:17:24;;;;;;;9.82;3.45;;;;;;;;;;5013480;28;20065;-55
2023/06/07 03:19:53;;;;;;;5.32;3.60;;;;;;;;;;5013563;28;20030;-56
2023/06/07 03:22:22;;;;;;;6.13;3.60;;;;;;;;;;5013282;28;20029;-56
2023/06/07 03:24:54;;;;;;;7.18;3.53;;;;;;;;;;5012985;28;20053;-53
2023/06/07 03:27:27;;;;;;;6.03;3.20;;;;;;;;;;5012176;28;20072;-54
2023/06/07 03:30:07;;;;;;;6.45;3.35;;;;;;;;;;5013436;28;20026;-54
2023/06/07 03:32:35;;;;;;;4.15;3.20;;;;;;;;;;5012944;28;20056;-53
2023/06/07 03:35:03;;;;;;;7.18;3.47;;;;;;;;;;5012951;28;20025;-53
2023/06/07 03:37:29;;;;;;;6.10;3.80;;;;;;;;;;5013117;28;20093;-56
2023/06/07 03:39:55;;;;;;;11.25;3.90;;;;;;;;;;5013257;28;20597;-50
2023/06/07 03:42:21;;;;;;;6.63;3.80;;;16.20;99.90;;;;;;5012548;28;20112;-50
2023/06/07 03:44:46;;;;;;;5.38;3.60;;;16.40;99.90;;;;;;5012100;28;20105;-49
2023/06/07 03:47:13;;;;;;;6.95;3.72;;;;;;;;;;5012578;28;20022;-51
2023/06/07 03:49:39;;;;;;;4.20;3.78;;;16.20;99.90;;;;;;5012127;28;20520;-55
2023/06/07 03:52:05;;;;;;;9.48;4.47;;;16.10;99.90;;;;;;5012907;28;20065;-51
2023/06/07 03:54:31;;;;;;;6.80;3.65;;;;;;;;;;5012701;28;20076;-52
2023/06/07 03:56:57;;;;;;;5.53;3.60;;;16.10;99.90;;;;;;5012818;28;20052;-51
2023/06/07 03:59:25;;;;;;;5.63;3.65;;;16.10;99.90;;;;;;5013330;28;20489;-52
2023/06/07 04:01:51;;;;;;;6.85;3.40;;;16.20;99.90;;;;;;5012916;28;20029;-52
2023/06/07 04:04:17;;;;;;;5.15;3.58;;;16.20;99.90;;;;;;5012431;28;20108;-55
2023/06/07 04:06:43;;;;;;;4.32;3.28;;;16.20;99.90;;;;;;5012464;28;20033;-53
2023/06/07 04:09:08;;;;;;;3.67;3.38;;;16.30;99.90;;;;;;5012659;28;20018;-52
2023/06/07 04:11:34;;;;;;;9.60;3.58;;;16.40;99.90;;;;;;5012663;28;20030;-50
2023/06/07 04:13:59;;;;;;;7.05;4.07;;;16.40;99.90;;;;;;5012226;28;20045;-54
2023/06/07 04:16:25;;;;;;;5.93;3.85;;;16.50;99.90;;;;;;5012347;28;20033;-50
2023/06/07 04:18:50;;;;;;;10.27;3.80;;;16.50;99.90;;;;;;5012326;28;20026;-54
2023/06/07 04:21:17;;;;;;;8.25;4.05;;;;;;;;;;5011681;28;20045;-50
2023/06/07 04:23:44;;;;;;;4.00;3.67;;;;;;;;;;5012102;28;20072;-51
2023/06/07 04:26:09;;;;;;;3.97;3.35;;;16.20;99.90;;;;;;5012299;28;20076;-52
2023/06/07 04:28:35;;;;;;;8.30;4.13;;;17.00;99.90;;;;;;5012295;28;20041;-54
2023/06/07 04:31:01;;;;;;;6.25;3.58;;;17.10;99.90;;;;;;5012113;28;20025;-58
2023/06/07 04:33:27;;;;;;;10.20;4.00;;;;;;;;;;5011903;28;20026;-55
2023/06/07 04:35:59;;;;;;;5.38;3.80;;;17.40;99.90;;;;;;5011312;28;20040;-55
2023/06/07 04:38:25;;;;;;;4.10;3.70;;;17.60;99.90;;;;;;5013003;28;20068;-55
2023/06/07 04:40:51;;;;;;;11.05;4.22;;;17.80;99.90;;;;;;5011649;28;20466;-51
2023/06/07 04:43:18;;;;;;;13.75;3.72;;;18.10;99.90;;;;;;5011771;28;20036;-49
2023/06/07 04:45:44;;;;;;;6.55;3.55;;;18.40;99.90;;;;;;5012019;28;20022;-55
2023/06/07 04:48:11;;;;;;;3.78;3.40;;;;;;;;;;5011988;28;20045;-54
2023/06/07 04:50:43;;;;;;;4.55;3.22;;;;;;;;;;5010700;28;20413;-50
2023/06/07 04:53:11;;;;;;;6.28;3.85;;;;;;;;;;5012095;28;20017;-51
2023/06/07 04:55:37;;;;;;;7.22;3.53;;;;;;;;;;5012195;28;20537;-54
2023/06/07 04:58:08;;;;;;;9.90;5.00;;;;;;;;;;5011574;28;20053;-55
2023/06/07 05:00:38;;;;;;;8.98;3.95;;;;;;;;;;5011728;28;20036;-56
2023/06/07 05:03:08;;;;;;;6.75;3.97;;;;;;;;;;5011526;28;20022;-54
2023/06/07 05:05:36;;;;;;;7.15;4.05;;;;;;;;;;5011926;28;20557;-54
2023/06/07 05:08:03;;;;;;;7.00;3.85;;;;;;;;;;5012288;28;20118;-52
2023/06/07 05:10:29;;;;;;;13.75;3.22;;;22.60;99.70;;;;;;5011606;28;20080;-52
2023/06/07 05:12:55;;;;;;;6.32;3.58;;;22.20;98.90;;;;;;5009725;28;20026;-55
2023/06/07 05:15:21;;;;;;;7.10;3.50;;;21.70;99.90;;;;;;5011541;28;20032;-55
2023/06/07 05:17:48;;;;;;;4.75;3.38;;;21.40;99.90;;;;;;5011570;28;20461;-53
2023/06/07 05:20:15;;;;;;;4.65;3.33;;;21.00;99.90;;;;;;5010224;28;20486;-52
2023/06/07 05:22:41;;;;;;;3.60;2.70;;;20.70;99.90;;;;;;5011046;28;20031;-51
2023/06/07 05:25:08;;;;;;;7.82;3.70;;;;;;;;;;5011061;28;20100;-53
2023/06/07 05:27:36;;;;;;;5.85;3.17;;;20.20;99.90;;;;;;5011172;28;20096;-54
2023/06/07 05:30:04;;;;;;;5.88;3.90;;;20.10;99.90;;;;;;5011442;28;20022;-55
2023/06/07 05:32:30;;;;;;;8.98;3.58;;;19.90;99.90;;;;;;5010996;28;20393;-58
2023/06/07 05:34:59;;;;;;;4.93;3.72;;;;;;;;;;5009766;28;20437;-51
2023/06/07 05:37:26;;;;;;;4.70;3.60;;;;;;;;;;5011329;28;20022;-56
2023/06/07 05:39:54;;;;;;;6.47;4.10;;;;;;;;;;5011423;28;20029;-53
2023/06/07 05:42:21;;;;;;;4.18;3.60;;;;;;;;;;5010643;28;20037;-56
2023/06/07 05:44:48;;;;;;;8.23;3.38;;;19.30;99.90;;;;;;5010956;28;20053;-52
2023/06/07 05:47:14;;;;;;;6.05;3.63;;;19.30;99.90;;;;;;5011198;28;20474;-55
2023/06/07 05:49:39;;;;;;;5.53;3.70;;;19.20;99.90;;;;;;5011412;28;20068;-51
2023/06/07 05:52:05;;;;;;;3.55;3.25;;;19.20;99.90;;;;;;5010849;28;20026;-54
2023/06/07 05:54:31;;;;;;;5.03;2.95;;;19.20;99.90;;;;;;5010821;28;20030;-50
2023/06/07 05:56:57;;;;;;;6.80;2.78;;;19.20;99.90;;;;;;5010919;28;20034;-55
2023/06/07 05:59:23;;;;;;;4.75;3.13;;;19.50;99.90;;;;;;5009917;28;20030;-55
2023/06/07 06:01:48;;;;;;;4.75;3.30;;;19.40;99.90;;;;;;5011034;28;20033;-56
2023/06/07 06:04:16;;;;;;;6.80;2.92;;;19.50;99.90;;;;;;5010879;28;20053;-52
2023/06/07 06:06:42;;;;;;;4.00;3.42;;;19.60;99.90;;;;;;5011256;28;20022;-52
2023/06/07 06:09:07;;;;;;;9.35;3.40;;;19.70;99.90;;;;;;5012726;28;20037;-53
2023/06/07 06:11:33;;;;;;;4.82;3.58;;;19.80;99.90;;;;;;5014405;28;20497;-55
2023/06/07 06:13:58;;;;;;;6.55;3.63;;;19.90;99.90;;;;;;5014670;28;20026;-51
2023/06/07 06:16:24;;;;;;;8.80;3.25;;;20.10;99.90;;;;;;5014622;28;20034;-56
2023/06/07 06:18:50;;;;;;;4.72;3.97;;;20.10;99.90;;;;;;5013452;28;20107;-54
2023/06/07 06:21:15;;;;;;;7.20;3.63;;;20.20;99.90;;;;;;5014196;28;20516;-52
2023/06/07 06:23:41;;;;;;;6.55;3.42;;;20.30;99.90;;;;;;5014283;28;20073;-56
2023/06/07 06:26:06;;;;;;;12.60;3.55;;;20.40;99.90;;;;;;5014226;28;20038;-54
2023/06/07 06:28:32;;;;;;;6.55;3.90;;;20.60;99.90;;;;;;5014536;28;20037;-53
2023/06/07 06:30:59;;;;;;;6.07;3.10;;;20.70;99.90;;;;;;5014037;28;20037;-53
2023/06/07 06:33:25;;;;;;;6.05;3.20;;;20.70;99.90;;;;;;5014135;28;20026;-55
2023/06/07 06:35:52;;;;;;;6.13;3.13;;;20.80;99.90;;;;;;5014355;28;20076;-50
2023/06/07 06:38:18;;;;;;;10.60;3.45;;;20.90;99.90;;;;;;5014282;28;20437;-55
2023/06/07 06:40:44;;;;;;;5.95;3.30;;;21.00;99.90;;;;;;5013667;28;20079;-58
2023/06/07 06:43:10;;;;;;;5.55;3.10;;;21.20;99.90;;;;;;5013861;28;20026;-54
2023/06/07 06:45:36;;;;;;;6.13;3.55;;;21.40;99.90;;;;;;5012958;28;20038;-52
2023/06/07 06:48:02;;;;;;;7.45;3.75;;;21.70;99.90;;;;;;5013975;28;20340;-54
2023/06/07 06:50:29;;;;;;;15.52;3.28;;;22.40;99.90;;;;;;5014282;28;20022;-52
2023/06/07 06:52:54;;;;;;;5.00;3.42;;;23.50;99.90;;;;;;5013317;28;20114;-62
2023/06/07 06:55:20;;;;;;;7.65;3.58;;;24.60;99.40;;;;;;5013845;28;20121;-55
2023/06/07 06:57:45;;;;;;;6.72;3.25;;;25.30;97.10;;;;;;5014076;28;20025;-51
2023/06/07 07:00:11;;;;;;;8.55;3.08;;;25.80;96.20;;;;;;5013971;28;20030;-54
2023/06/07 07:02:37;;;;;;;4.78;3.40;;;26.00;78.60;;;;;;5013342;28;20105;-54
2023/06/07 07:05:06;;;;;;;3.80;2.83;;;26.00;79.00;;;;;;5013535;28;20037;-56
2023/06/07 07:07:32;;;;;;;4.35;2.90;;;26.30;79.30;;;;;;5011828;28;20029;-53
2023/06/07 07:09:59;;;;;;;4.32;2.88;;;26.40;78.20;;;;;;5013672;28;20029;-54
2023/06/07 07:12:25;;;;;;;3.10;2.80;;;26.60;78.30;;;;;;5013405;28;20026;-57
2023/06/07 07:14:50;;;;;;;6.90;3.55;;;27.10;77.90;;;;;;5012094;28;20037;-56
2023/06/07 07:17:16;;;;;;;4.47;2.67;;;28.00;76.10;;;;;;5013405;28;20029;-53
2023/06/07 07:19:42;;;;;;;10.23;3.50;;;29.00;74.80;;;;;;5012225;28;20026;-52
2023/06/07 07:22:07;;;;;;;12.00;2.92;;;29.20;73.80;;;;;;5013211;28;20489;-55
2023/06/07 07:24:33;;;;;;;12.60;3.42;;;28.60;72.00;;;;;;5013325;28;20033;-53
2023/06/07 07:26:58;;;;;;;7.15;3.70;;;27.40;75.00;;;;;;5013387;28;20048;-52
2023/06/07 07:29:24;;;;;;;4.05;3.13;;;27.00;76.10;;;;;;5012664;28;20026;-54
2023/06/07 07:31:49;;;;;;;6.18;3.05;;;27.40;76.20;;;;;;5009246;28;20055;-56
2023/06/07 07:34:16;;;;;;;3.92;2.90;;;27.90;75.10;;;;;;4993303;28;20384;-53
2023/06/07 07:36:43;;;;;;;4.13;3.20;;;28.60;73.80;;;;;;4993669;28;20069;-58
2023/06/07 07:39:09;;;;;;;6.72;3.50;;;28.90;73.10;;;;;;4993778;28;20033;-52
2023/06/07 07:41:35;;;;;;;5.82;3.03;;;29.20;71.80;;;;;;4993292;28;20027;-54
2023/06/07 07:44:01;;;;;;;7.93;3.50;;;29.10;71.70;;;;;;4993348;28;20022;-53
2023/06/07 07:46:27;;;;;;;7.65;3.33;;;29.40;71.70;;;;;;4993359;28;20113;-52
2023/06/07 07:48:52;;;;;;;9.48;3.72;;;30.00;71.40;;;;;;4993541;28;20430;-51
2023/06/07 07:51:18;;;;;;;4.15;3.20;;;30.10;70.70;;;;;;4991504;28;20023;-51
2023/06/07 07:53:43;;;;;;;5.10;3.50;;;30.40;70.10;;;;;;4992986;28;20525;-51
2023/06/07 07:56:09;;;;;;;5.05;3.40;;;30.70;69.50;;;;;;4993503;28;20026;-52
2023/06/07 07:58:36;;;;;;;6.32;3.42;;;30.30;70.40;;;;;;4993304;28;20153;-55
2023/06/07 08:01:02;;;;;;;6.00;3.20;;;30.50;69.80;;;;;;4991573;28;20026;-50
2023/06/07 08:03:28;;;;;;;7.57;3.25;;;30.50;70.40;;;;;;4992839;28;20499;-54
2023/06/07 08:05:54;;;;;;;4.50;3.40;;;30.60;69.30;;;;;;4992022;28;20033;-54
2023/06/07 08:08:19;;;;;;;8.38;3.75;;;30.50;69.30;;;;;;4994163;28;20030;-54
2023/06/07 08:10:46;;;;;;;8.02;3.28;;;31.00;69.10;;;;;;4994244;28;20023;-55
2023/06/07 08:13:12;;;;;;;6.97;3.38;;;30.50;69.40;;;;;;4992917;28;20107;-53
2023/06/07 08:15:38;;;;;;;7.47;3.33;;;30.30;70.10;;;;;;4992922;28;20057;-56
2023/06/07 08:18:04;;;;;;;8.00;3.65;;;30.60;69.10;;;;;;4992659;28;20026;-53
2023/06/07 08:20:30;;;;;;;10.18;4.18;;;30.60;69.20;;;;;;4991479;28;20025;-53
2023/06/07 08:22:55;;;;;;;7.88;3.75;;;30.90;68.10;;;;;;4991762;28;20034;-53
2023/06/07 08:25:21;;;;;;;8.50;3.85;;;30.20;68.80;;;;;;5011919;28;20034;-53
2023/06/07 08:27:47;;;;;;;6.95;3.92;;;29.50;70.00;;;;;;5010961;28;20029;-50
2023/06/07 08:30:12;;;;;;;6.03;4.07;;;28.70;71.10;;;;;;5012130;28;20100;-53
2023/06/07 08:32:38;;;;;;;11.73;4.68;;;27.80;73.00;;;;;;5011199;28;20510;-51
2023/06/07 08:35:05;;;;;;;5.47;3.90;;;27.10;73.90;;;;;;5011880;28;20474;-57
2023/06/07 08:37:30;;;;;;;7.22;3.85;;;26.70;74.50;;;;;;5012063;28;20034;-56
2023/06/07 08:39:56;;;;;;;5.90;3.85;;;26.40;75.70;;;;;;5011515;28;20030;-53
2023/06/07 08:42:21;;;;;;;6.40;3.83;;;26.30;76.10;;;;;;5002600;28;20057;-54
2023/06/07 08:44:47;;;;;;;8.90;4.15;;;26.50;76.60;;;;;;5003319;28;20030;-53
2023/06/07 08:47:15;;;;;;;6.45;3.90;;;26.90;76.30;;;;;;4992206;28;20065;-51
2023/06/07 08:49:44;;;;;;;5.65;3.65;;;27.20;75.50;;;;;;5004943;28;20025;-53
2023/06/07 08:52:10;;;;;;;4.68;3.60;;;27.70;74.00;;;;;;5003353;28;20038;-48
2023/06/07 08:54:41;;;;;;;9.18;3.60;;;27.90;74.30;;;;;;5010968;28;20049;-51
2023/06/07 08:57:09;;;;;;;14.35;4.50;;;28.10;74.80;;;;;;5011780;28;20108;-51
2023/06/07 08:59:36;;;;;;;8.68;3.92;;;28.10;73.90;;;;;;5011764;28;20030;-50
2023/06/07 09:02:03;;;;;;;4.28;3.90;;;28.00;73.50;;;;;;5011361;28;20033;-51
2023/06/07 09:04:29;;;;;;;11.25;5.00;;;27.30;73.90;;;;;;5011161;28;20164;-48
2023/06/07 09:06:55;;;;;;;5.88;3.90;;;27.00;75.00;;;;;;5011769;28;20029;-49
2023/06/07 09:09:21;;;;;;;4.82;3.72;;;26.70;75.40;;;;;;5011260;28;20107;-49
2023/06/07 09:11:51;;;;;;;7.00;4.03;;;26.30;75.90;;;;;;5010209;28;20074;-49
2023/06/07 09:14:17;;;;;;;6.28;4.50;;;26.20;77.00;;;;;;5011641;28;20142;-48
2023/06/07 09:16:54;;;;;;;7.85;4.35;;;25.90;77.30;;;;;;5007114;28;20104;-52
2023/06/07 09:19:34;;;;;;;5.65;4.40;;;25.80;77.90;;;;;;5004940;28;20080;-54
2023/06/07 09:22:05;;;;;;;8.25;4.60;;;25.40;78.30;;;;;;5004320;28;20030;-53
2023/06/07 09:24:31;;;;;;;5.50;4.75;;;24.90;79.20;;;;;;5008007;28;20060;-52
2023/06/07 09:27:01;;;;;;;40.13;27.95;;;24.70;79.40;;;;;;5009882;28;20030;-49
2023/06/07 09:29:29;;;;;;;26.05;16.65;;;24.60;80.20;;;;;;5011166;28;20105;-52
2023/06/07 09:32:14;;;;;;;17.63;10.27;;;24.60;80.90;;;;;;5009638;28;20490;-56
2023/06/07 09:34:40;;;;;;;9.43;4.85;;;24.80;80.60;;;;;;5010718;28;20382;-47
2023/06/07 09:37:06;;;;;;;9.30;4.43;;;25.00;81.00;;;;;;5011092;28;20033;-49
2023/06/07 09:39:32;;;;;;;7.25;4.45;;;25.10;80.70;;;;;;5010936;28;20022;-53
2023/06/07 09:41:58;;;;;;;10.73;4.65;;;25.00;79.10;;;;;;5010600;28;20397;-50
2023/06/07 09:44:26;;;;;;;11.73;5.15;;;24.60;81.20;;;;;;5012572;28;20029;-49
2023/06/07 09:46:52;;;;;;;10.20;4.68;;;24.40;82.00;;;;;;5015231;28;20029;-48
2023/06/07 09:49:34;;;;;;;7.75;4.93;;;24.30;82.30;;;;;;5014742;28;20053;-52
2023/06/07 09:52:01;;;;;;;9.35;4.65;;;24.30;82.40;;;;;;5012182;28;20025;-52
2023/06/07 09:54:38;;;;;;;5.68;4.97;;;24.10;82.80;;;;;;5012803;28;20120;-51
2023/06/07 09:57:10;;;;;;;14.63;5.18;;;24.20;83.00;;;;;;5014182;28;20494;-49
2023/06/07 09:59:54;;;;;;;7.15;4.03;;;24.20;82.80;;;;;;5014670;28;20379;-50
2023/06/07 10:02:28;;;;;;;6.90;4.18;;;24.00;83.70;;;;;;5014656;28;20482;-50
2023/06/07 10:04:56;;;;;;;10.63;4.75;;;24.00;84.40;;;;;;5014573;28;20029;-48
2023/06/07 10:07:23;;;;;;;15.60;5.28;;;24.10;84.50;;;;;;5014782;28;20033;-47
2023/06/07 10:09:52;;;;;;;8.60;4.60;;;24.20;83.90;;;;;;5014734;28;20033;-48
2023/06/07 10:12:20;;;;;;;6.85;4.97;;;24.30;83.80;;;;;;5014201;28;20116;-52
2023/06/07 10:14:47;;;;;;;6.20;5.13;;;24.60;83.50;;;;;;5014493;28;20030;-52
2023/06/07 10:17:14;;;;;;;10.18;5.32;;;24.60;83.90;;;;;;5008027;28;20029;-50
2023/06/07 10:19:43;;;;;;;9.90;5.32;;;24.50;84.10;;;;;;5013657;28;20028;-51
2023/06/07 10:22:17;;;;;;;9.82;4.68;;;24.40;83.90;;;;;;5014311;28;20038;-47
2023/06/07 10:25:01;;;;;;;8.20;5.18;;;24.60;84.20;;;;;;5014346;28;20114;-52
2023/06/07 10:27:32;;;;;;;6.57;5.10;;;24.80;83.60;;;;;;5014533;28;20109;-49
2023/06/07 10:30:04;;;;;;;6.25;4.72;;;24.50;83.20;;;;;;5013793;28;20281;-47
2023/06/07 10:32:31;;;;;;;6.40;4.57;;;24.40;84.10;;;;;;5014209;28;20022;-52
2023/06/07 10:34:59;;;;;;;6.72;4.72;;;24.60;84.80;;;;;;5014161;28;20026;-50
2023/06/07 10:37:30;;;;;;;6.60;5.53;;;24.80;83.90;;;;;;5013869;28;20053;-53
2023/06/07 10:39:57;;;;;;;5.95;4.85;;;25.00;83.10;;;;;;5014129;28;20034;-48
2023/06/07 10:42:22;;;;;;;6.97;5.47;;;25.10;82.80;;;;;;5013530;28;20033;-50
2023/06/07 10:44:48;;;;;;;9.15;5.22;;;25.00;83.30;;;;;;5013420;28;20109;-52
2023/06/07 10:47:26;;;;;;;9.52;5.10;;;25.30;84.50;;;;;;5013743;28;20026;-54
2023/06/07 10:49:53;;;;;;;5.95;4.82;;;25.20;82.40;;;;;;5013127;28;20053;-51
2023/06/07 10:52:19;;;;;;;7.68;5.07;;;25.20;83.50;;;;;;5010503;28;20521;-47
2023/06/07 10:54:45;;;;;;;10.82;5.53;;;24.80;83.10;;;;;;5008820;28;20324;-51
2023/06/07 10:57:12;;;;;;;35.28;25.73;;;24.80;83.60;;;;;;5013342;28;20034;-51
2023/06/07 10:59:39;;;;;;;17.42;11.05;;;24.80;83.60;;;;;;5013313;28;20029;-53
2023/06/07 11:02:24;;;;;;;5.72;5.20;;;24.90;83.40;;;;;;5013008;28;20427;-50
2023/06/07 11:04:57;;;;;;;7.78;4.78;;;25.00;83.60;;;;;;5013118;28;20026;-47
2023/06/07 11:07:28;;;;;;;7.82;4.82;;;25.00;83.90;;;;;;5027581;22;20050;-54
2023/06/07 11:10:00;;;;;;;7.65;5.15;;;24.90;82.60;;;;;;4993903;28;20022;-53
2023/06/07 11:12:34;;;;;;;5.53;5.03;;;24.60;83.10;;;;;;4993414;28;20027;-50
2023/06/07 11:15:21;;;;;;;8.50;3.33;;;24.50;83.60;;;;;;4993683;28;20510;-52
2023/06/07 11:17:56;;;;;;;6.13;3.97;;;24.50;84.30;;;;;;4989914;28;20101;-48
2023/06/07 11:20:40;;;;;;;6.87;3.80;;;24.40;84.80;;;;;;4990047;28;20022;-46
2023/06/07 11:23:19;;;;;;;4.95;4.00;;;24.40;84.30;;;;;;4993675;28;20446;-46
2023/06/07 11:25:45;;;;;;;4.45;4.00;;;24.30;84.70;;;;;;4993641;28;20019;-54
2023/06/07 11:28:12;;;;;;;5.78;3.92;;;24.20;85.20;;;;;;4993997;28;20026;-50
2023/06/07 11:30:38;;;;;;;5.45;3.60;;;24.10;85.10;;;;;;4992608;28;20031;-48
2023/06/07 11:33:04;;;;;;;5.57;3.20;;;24.20;85.40;;;;;;4992446;28;20026;-50
2023/06/07 11:35:32;;;;;;;4.65;3.70;;;24.30;86.50;;;;;;4992335;28;20025;-49
2023/06/07 11:38:04;;;;;;;4.90;3.92;;;24.40;85.40;;;;;;4991607;28;20490;-46
2023/06/07 11:40:29;;;;;;;4.32;3.92;;;24.40;85.20;;;;;;4993629;28;20038;-51
2023/06/07 11:42:55;;;;;;;4.78;3.55;;;24.30;85.30;;;;;;4991486;28;20033;-53
2023/06/07 11:45:21;;;;;;;4.63;3.95;;;24.30;85.50;;;;;;4993760;28;20483;-50
2023/06/07 11:47:50;;;;;;;4.43;3.97;;;24.40;85.30;;;;;;4994046;28;20387;-49
2023/06/07 11:50:17;;;;;;;6.50;4.10;;;24.50;85.00;;;;;;4992814;28;20037;-50
2023/06/07 11:52:42;;;;;;;8.48;3.50;;;24.50;85.60;;;;;;4982888;28;20027;-47
2023/06/07 11:55:08;;;;;;;4.30;3.78;;;24.50;86.90;;;;;;4982773;28;20041;-47
2023/06/07 11:57:38;;;;;;;3.78;3.47;;;24.50;85.90;;;;;;4993432;28;20029;-50
2023/06/07 12:00:15;;;;;;;4.53;3.38;;;24.60;86.20;;;;;;4992775;28;20028;-50
2023/06/07 12:02:42;;;;;;;4.13;3.72;;;24.50;86.20;;;;;;4991616;28;20030;-54
2023/06/07 12:05:11;;;;;;;5.40;3.58;;;24.50;85.70;;;;;;4991274;28;20023;-57
2023/06/07 12:07:38;;;;;;;4.05;3.67;;;24.60;85.40;;;;;;4984379;28;20042;-55
2023/06/07 12:10:05;;;;;;;6.20;3.35;;;24.60;85.00;;;;;;4992892;28;20072;-51
2023/06/07 12:12:31;;;;;;;6.30;3.47;;;24.60;85.90;;;;;;4991696;28;20116;-53
2023/06/07 12:15:00;;;;;;;4.78;3.22;;;24.60;84.80;;;;;;4992554;28;20058;-54
2023/06/07 12:17:34;;;;;;;11.98;10.77;;;24.80;85.30;;;;;;4993001;28;20383;-50
2023/06/07 12:20:13;;;;;;;48.08;35.95;;;24.90;84.10;;;;;;4992731;28;20058;-52
2023/06/07 12:22:39;;;;;;;7.00;4.57;;;25.00;84.70;;;;;;4992495;28;20031;-50
2023/06/07 12:25:15;;;;;;;4.32;3.72;;;25.00;85.10;;;;;;4992623;28;20035;-55
2023/06/07 12:27:45;;;;;;;3.85;3.45;;;25.10;84.70;;;;;;4992692;28;20054;-50
2023/06/07 12:30:11;;;;;;;3.40;3.10;;;25.00;81.90;;;;;;4992699;28;20154;-51
2023/06/07 12:32:37;;;;;;;4.10;3.08;;;24.90;83.20;;;;;;4992228;28;20114;-53
2023/06/07 12:35:05;;;;;;;3.95;3.28;;;24.90;82.60;;;;;;4992529;28;20076;-55
2023/06/07 12:37:37;;;;;;;4.78;3.20;;;24.80;82.80;;;;;;4992622;28;20109;-53
2023/06/07 12:40:05;;;;;;;3.97;3.10;;;24.90;83.60;;;;;;4992848;28;20498;-52
2023/06/07 12:42:34;;;;;;;3.55;3.13;;;25.00;83.20;;;;;;4992170;28;20032;-55
2023/06/07 12:45:00;;;;;;;7.13;2.65;;;25.00;82.50;;;;;;4992017;28;20030;-53
2023/06/07 12:47:25;;;;;;;3.45;2.70;;;25.00;81.40;;;;;;4992721;28;20037;-53
2023/06/07 12:49:51;;;;;;;5.80;2.88;;;25.00;81.50;;;;;;4992899;28;20026;-54
2023/06/07 12:52:17;;;;;;;5.38;2.65;;;25.00;80.30;;;;;;4992690;28;20029;-54
2023/06/07 12:54:43;;;;;;;4.35;3.33;;;25.00;80.60;;;;;;4992344;28;20509;-51
2023/06/07 12:57:09;;;;;;;5.93;3.60;;;25.00;81.60;;;;;;4992365;28;20034;-53
2023/06/07 12:59:35;;;;;;;4.28;3.42;;;24.90;82.60;;;;;;4992349;28;20023;-51
2023/06/07 13:02:00;;;;;;;4.20;3.55;;;25.00;83.10;;;;;;4991610;28;20109;-50
2023/06/07 13:04:26;;;;;;;3.95;3.50;;;25.10;83.50;;;;;;4991787;28;20038;-54
2023/06/07 13:06:52;;;;;;;5.00;3.20;;;25.20;82.70;;;;;;4990604;28;20030;-49
2023/06/07 13:09:18;;;;;;;4.78;3.75;;;25.30;81.30;;;;;;4992393;28;20117;-49
2023/06/07 13:11:44;;;;;;;6.30;3.85;;;25.30;82.00;;;;;;4988966;28;20044;-53
2023/06/07 13:14:10;;;;;;;3.13;2.90;;;25.20;82.20;;;;;;4990764;28;20570;-55
2023/06/07 13:16:36;;;;;;;30.48;25.02;;;25.20;81.70;;;;;;4991814;28;20393;-51
2023/06/07 13:19:02;;;;;;;6.57;5.93;;;25.20;81.90;;;;;;4991880;28;20062;-51
2023/06/07 13:21:28;;;;;;;21.60;14.55;;;25.10;81.80;;;;;;4991671;28;20061;-51
2023/06/07 13:23:54;;;;;;;6.03;3.35;;;25.10;82.40;;;;;;4991965;28;20509;-52